Time;durP1;ratioP1;P1;durP2;ratioP2;P2;SDS_P1;SDS_P2;PMS_P1;PMS_P2;Temp;Humidity;BMP_temperature;BMP_pressure;BME280_temperature;BME280_humidity;BME280_pressure;Samples;Min_cycle;Max_cycle;Signal;HPM_P1;HPM_P2
2023/08/15 00:02:39;;;;;;;7.55;2.90;;;;;;;22.75;66.46;100151.34;10337103;28;20104;-58
2023/08/15 00:07:41;;;;;;;9.77;2.50;;;;;;;22.72;66.60;100152.66;10334937;28;20050;-58
2023/08/15 00:12:53;;;;;;;4.72;2.17;;;;;;;22.73;66.54;100143.38;10336715;28;20112;-59
2023/08/15 00:18:04;;;;;;;3.20;1.88;;;;;;;22.74;66.51;100135.97;10342308;28;20420;-58
2023/08/15 00:23:09;;;;;;;5.22;2.10;;;;;;;22.71;66.51;100137.31;10346550;28;20070;-59
2023/08/15 00:28:11;;;;;;;4.22;2.40;;;;;;;22.70;66.48;100132.09;10345681;28;20069;-60
2023/08/15 00:33:13;;;;;;;4.63;2.53;;;;;;;22.68;66.68;100140.56;10342718;28;20042;-59
2023/08/15 00:38:15;;;;;;;6.35;2.38;;;;;;;22.66;66.61;100139.19;10343369;28;20513;-60
2023/08/15 00:43:18;;;;;;;5.90;2.45;;;;;;;22.67;66.54;100130.72;10342625;28;20404;-59
2023/08/15 00:48:21;;;;;;;8.60;2.03;;;;;;;22.65;66.75;100137.53;10344885;28;20034;-59
2023/08/15 00:53:22;;;;;;;5.95;2.95;;;;;;;22.68;66.75;100115.09;10343973;28;20050;-59
2023/08/15 00:58:24;;;;;;;6.32;2.40;;;;;;;22.66;66.81;100104.38;10343611;28;20038;-59
2023/08/15 01:03:26;;;;;;;7.57;2.38;;;;;;;22.63;66.70;100090.38;10341744;28;20049;-60
2023/08/15 01:08:27;;;;;;;6.38;2.63;;;;;;;22.55;67.30;100097.16;10345039;28;20057;-60
2023/08/15 01:13:42;;;;;;;5.43;2.20;;;;;;;22.53;67.22;100108.41;10337361;28;20050;-59
2023/08/15 01:18:53;;;;;;;6.32;2.70;;;;;;;22.53;67.12;100110.28;10346053;28;20428;-59
2023/08/15 01:23:55;;;;;;;5.55;2.45;;;;;;;22.40;67.51;100110.75;10341552;28;20052;-59
2023/08/15 01:28:57;;;;;;;5.85;3.13;;;;;;;22.36;67.46;100122.22;10341717;28;20046;-59
2023/08/15 01:34:22;;;;;;;6.13;2.50;;;;;;;22.38;67.62;100106.34;10340482;28;20061;-59
2023/08/15 01:39:28;;;;;;;8.40;2.78;;;;;;;22.35;67.45;100087.72;10340369;28;20492;-59
2023/08/15 01:44:32;;;;;;;5.63;2.35;;;;;;;22.29;67.58;100091.47;10348036;28;20385;-59
2023/08/15 01:49:33;;;;;;;5.78;2.28;;;;;;;22.22;68.13;100095.50;10342812;28;20374;-59
2023/08/15 01:54:34;;;;;;;3.45;2.63;;;;;;;22.01;68.64;100106.22;10339695;28;20146;-59
2023/08/15 01:59:36;;;;;;;6.63;2.80;;;;;;;22.07;68.51;100098.91;10342590;28;20042;-59
2023/08/15 02:04:37;;;;;;;6.70;2.65;;;;;;;22.13;68.19;100082.25;10343826;28;20065;-59
2023/08/15 02:09:39;;;;;;;5.55;3.42;;;;;;;22.06;68.38;100089.03;10343262;28;20050;-59
2023/08/15 02:14:40;;;;;;;6.43;2.70;;;;;;;22.04;68.61;100091.19;10338563;28;20062;-58
2023/08/15 02:19:41;;;;;;;6.35;3.20;;;;;;;22.05;68.48;100085.47;10345206;28;20125;-58
2023/08/15 02:24:43;;;;;;;15.95;3.15;;;;;;;22.04;68.37;100097.53;10339008;28;20042;-57
2023/08/15 02:29:44;;;;;;;6.95;3.00;;;;;;;21.95;68.78;100102.59;10343713;28;20919;-58
2023/08/15 02:34:46;;;;;;;3.55;3.10;;;;;;;22.01;68.84;100105.41;10339948;28;20042;-57
2023/08/15 02:39:47;;;;;;;7.85;3.00;;;;;;;21.97;68.60;100121.53;10338562;28;20050;-58
2023/08/15 02:44:49;;;;;;;4.15;2.45;;;;;;;21.86;69.52;100131.53;10341418;28;20056;-57
2023/08/15 02:49:50;;;;;;;3.22;2.50;;;;;;;21.92;69.17;100118.72;10338379;28;20053;-57
2023/08/15 02:54:51;;;;;;;3.55;2.50;;;;;;;21.98;69.25;100120.44;10336419;28;20054;-58
2023/08/15 02:59:53;;;;;;;3.75;2.58;;;;;;;21.97;69.70;100124.25;10338966;28;20448;-57
2023/08/15 03:04:54;;;;;;;5.78;3.25;;;;;;;21.78;70.59;100162.06;10336529;28;20508;-58
2023/08/15 03:09:56;;;;;;;6.07;3.50;;;;;;;21.94;71.05;100165.84;10338689;28;20508;-57
2023/08/15 03:14:57;;;;;;;10.45;4.15;;;;;;;22.19;70.64;100170.75;10337735;28;20042;-58
2023/08/15 03:19:59;;;;;;;4.53;2.67;;;;;;;22.36;70.02;100177.00;10340659;28;20128;-58
2023/08/15 03:25:00;;;;;;;9.73;3.25;;;;;;;22.46;69.71;100170.78;10337287;28;20042;-59
2023/08/15 03:30:02;;;;;;;8.80;3.22;;;;;;;22.43;70.07;100167.75;10334822;28;20624;-59
2023/08/15 03:35:04;;;;;;;7.32;3.20;;;;;;;22.37;70.38;100170.44;10329938;28;20052;-59
2023/08/15 03:40:07;;;;;;;10.30;4.70;;;;;;;22.08;71.87;100153.41;10334897;28;20049;-59
2023/08/15 03:45:09;;;;;;;8.60;4.38;;;;;;;21.83;72.66;100185.94;10336385;28;20500;-60
2023/08/15 03:50:10;;;;;;;16.48;5.25;;;;;;;21.72;73.72;100098.28;10334445;28;20602;-66
2023/08/15 03:55:12;;;;;;;11.88;6.95;;;;;;;21.50;74.92;100144.75;10345961;28;20506;-64
2023/08/15 04:00:18;;;;;;;15.07;7.78;;;;;;;21.36;76.42;100108.72;10343162;28;20050;-66
2023/08/15 04:05:19;;;;;;;21.03;8.43;;;;;;;21.58;75.68;100144.34;10344428;28;20527;-65
2023/08/15 04:10:21;;;;;;;22.00;10.15;;;;;;;21.70;76.08;100163.38;10347262;28;20493;-60
2023/08/15 04:15:23;;;;;;;17.45;10.07;;;;;;;21.69;76.72;100188.25;10346706;28;20053;-62
2023/08/15 04:20:24;;;;;;;22.88;9.23;;;;;;;21.59;77.58;100213.56;10343754;28;20396;-61
2023/08/15 04:25:26;;;;;;;14.20;8.07;;;;;;;21.63;77.11;100225.63;10343427;28;20061;-61
2023/08/15 04:30:31;;;;;;;17.40;9.27;;;;;;;21.42;78.05;100260.03;10344813;28;20045;-59
2023/08/15 04:35:33;;;;;;;23.05;10.07;;;;;;;21.47;77.86;100251.94;10344710;28;20137;-62
2023/08/15 04:40:40;;;;;;;22.88;10.32;;;;;;;21.73;77.39;100208.53;10342575;28;20837;-61
2023/08/15 04:45:43;;;;;;;22.88;11.43;;;;;;;21.85;77.46;100271.38;10344096;28;20137;-61
2023/08/15 04:50:45;;;;;;;21.80;9.68;;;;;;;21.77;77.89;100335.56;10344080;28;20050;-61
2023/08/15 04:55:47;;;;;;;11.25;6.85;;;;;;;21.87;77.88;100302.03;10345339;28;20049;-61
2023/08/15 05:00:48;;;;;;;12.13;6.32;;;;;;;22.00;77.76;100285.25;10351564;28;20685;-61
2023/08/15 05:05:50;;;;;;;1.65;0.95;;;;;;;21.60;78.57;100264.44;10342600;28;20068;-63
2023/08/15 05:10:51;;;;;;;0.82;0.47;;;;;;;21.49;77.83;100216.97;10344810;28;20050;-63
2023/08/15 05:15:53;;;;;;;4.18;1.00;;;;;;;21.60;77.53;100176.88;10341715;28;20054;-62
2023/08/15 05:20:54;;;;;;;1.52;0.93;;;;;;;21.79;76.99;100163.75;10341727;28;20042;-62
2023/08/15 05:25:56;;;;;;;3.20;1.17;;;;;;;21.87;76.85;100174.22;10341165;28;20043;-61
2023/08/15 05:30:57;;;;;;;3.45;1.70;;;;;;;22.01;76.53;100155.50;10341599;28;20431;-61
2023/08/15 05:35:59;;;;;;;4.10;2.28;;;;;;;22.08;76.60;100169.00;10340854;28;20061;-62
2023/08/15 05:41:00;;;;;;;4.80;3.45;;;;;;;22.16;76.51;100174.03;10342925;28;20057;-62
2023/08/15 05:46:02;;;;;;;4.65;3.22;;;;;;;22.21;76.87;100182.28;10342544;28;20049;-62
2023/08/15 05:51:03;;;;;;;10.18;4.78;;;;;;;22.27;76.92;100185.94;10338323;28;20526;-62
2023/08/15 05:56:04;;;;;;;12.10;5.32;;;;;;;22.29;76.77;100191.97;10334434;28;20050;-62
2023/08/15 06:01:06;;;;;;;14.50;5.68;;;;;;;22.33;77.05;100201.34;10340578;28;20037;-63
2023/08/15 06:06:08;;;;;;;8.65;5.40;;;;;;;22.43;76.90;100215.13;10340921;28;20497;-62
2023/08/15 06:11:09;;;;;;;7.68;6.38;;;;;;;22.52;76.66;100221.81;10341354;28;20046;-63
2023/08/15 06:16:11;;;;;;;7.50;5.78;;;;;;;22.62;76.73;100231.22;10336777;28;20035;-63
2023/08/15 06:21:14;;;;;;;10.32;5.97;;;;;;;22.67;76.85;100250.44;10343600;28;20053;-61
2023/08/15 06:26:16;;;;;;;8.95;4.60;;;;;;;22.73;76.94;100260.38;10344864;28;20054;-61
2023/08/15 06:31:17;;;;;;;7.20;3.80;;;;;;;22.78;76.69;100254.94;10340426;28;20710;-61
2023/08/15 06:36:19;;;;;;;8.77;4.32;;;;;;;22.88;76.75;100246.00;10344940;28;20512;-61
2023/08/15 06:41:23;;;;;;;8.18;4.53;;;;;;;23.00;76.65;100254.88;10339265;28;20060;-62
2023/08/15 06:46:25;;;;;;;5.75;3.70;;;;;;;23.11;76.92;100264.88;10336223;28;20038;-60
2023/08/15 06:51:26;;;;;;;7.53;3.58;;;;;;;23.27;76.51;100252.09;10338501;28;20042;-61
2023/08/15 06:56:28;;;;;;;5.15;2.50;;;;;;;23.40;76.67;100264.56;10347041;28;20046;-61
2023/08/15 07:01:29;;;;;;;3.85;1.50;;;;;;;23.49;76.00;100262.94;10354102;28;20046;-61
2023/08/15 07:06:32;;;;;;;2.45;1.27;;;;;;;23.56;75.42;100263.56;10348046;28;20054;-61
2023/08/15 07:11:33;;;;;;;2.50;1.25;;;;;;;23.66;74.58;100256.50;10351035;28;20110;-60
2023/08/15 07:16:34;;;;;;;3.08;1.20;;;;;;;23.70;74.85;100263.91;10347757;28;20489;-60
2023/08/15 07:21:36;;;;;;;4.78;1.20;;;;;;;23.78;74.53;100261.81;10364318;28;20443;-60
2023/08/15 07:26:37;;;;;;;3.67;1.13;;;;;;;23.82;73.67;100257.44;10358348;28;20070;-60
2023/08/15 07:31:41;;;;;;;3.53;0.80;;;;;;;23.93;73.70;100250.88;10370143;28;20043;-60
2023/08/15 07:36:42;;;;;;;1.70;0.60;;;;;;;24.09;72.42;100255.38;10372334;28;20054;-60
2023/08/15 07:41:45;;;;;;;4.78;0.75;;;;;;;24.34;71.27;100257.34;10374174;28;20050;-60
2023/08/15 07:46:46;;;;;;;1.95;0.80;;;;;;;24.39;71.15;100263.97;10373855;28;20064;-60
2023/08/15 07:51:48;;;;;;;2.00;0.40;;;;;;;24.43;70.03;100284.34;10373133;28;20061;-60
2023/08/15 07:56:49;;;;;;;1.35;0.55;;;;;;;24.48;69.61;100279.66;10383307;28;20038;-59
2023/08/15 08:01:51;;;;;;;1.95;0.40;;;;;;;24.47;69.02;100280.78;10379603;28;20140;-59
2023/08/15 08:06:52;;;;;;;1.00;0.50;;;;;;;24.70;68.13;100290.50;10338455;28;20493;-59
2023/08/15 08:11:54;;;;;;;1.58;0.65;;;;;;;24.87;67.92;100292.97;10340478;28;20125;-60
2023/08/15 08:16:55;;;;;;;1.48;0.50;;;;;;;25.01;67.19;100317.22;10338963;28;20059;-60
2023/08/15 08:21:57;;;;;;;2.38;0.60;;;;;;;25.06;67.21;100307.03;10338994;28;20041;-59
2023/08/15 08:26:58;;;;;;;1.65;0.60;;;;;;;25.14;66.98;100306.50;10332688;28;20505;-61
2023/08/15 08:31:59;;;;;;;1.65;0.73;;;;;;;25.25;66.07;100314.78;10337092;28;20428;-60
2023/08/15 08:37:02;;;;;;;2.17;0.68;;;;;;;25.42;66.75;100298.81;10332219;28;20056;-61
2023/08/15 08:42:03;;;;;;;1.45;0.73;;;;;;;25.62;66.39;100303.47;10340025;28;20045;-59
2023/08/15 08:47:06;;;;;;;1.23;0.70;;;;;;;25.73;65.86;100294.09;10340983;28;20038;-60
2023/08/15 08:52:08;;;;;;;1.58;1.08;;;;;;;25.83;65.53;100300.66;10345901;28;20053;-60
2023/08/15 08:57:11;;;;;;;3.50;1.05;;;;;;;25.97;65.14;100292.66;10344603;28;20396;-58
2023/08/15 09:02:16;;;;;;;1.95;0.73;;;;;;;26.10;64.96;100292.91;10341897;28;20046;-58
2023/08/15 09:07:17;;;;;;;2.85;1.02;;;;;;;26.34;64.61;100308.78;10337245;28;20120;-58
2023/08/15 09:12:37;;;;;;;3.05;0.90;;;;;;;26.34;64.37;100313.50;10353535;28;20072;-59
2023/08/15 09:17:39;;;;;;;1.55;1.00;;;;;;;26.64;63.71;100309.78;10379788;28;20046;-58
2023/08/15 09:22:44;;;;;;;2.92;1.00;;;;;;;27.10;62.73;100309.50;10363926;28;20058;-60
2023/08/15 09:27:46;;;;;;;2.00;0.90;;;;;;;27.28;62.15;100310.75;10375562;28;20069;-60
2023/08/15 09:32:48;;;;;;;1.02;0.90;;;;;;;27.50;61.67;100304.75;10376442;28;20053;-60
2023/08/15 09:37:50;;;;;;;1.40;0.95;;;;;;;27.93;60.78;100310.44;10369374;28;20038;-60
2023/08/15 09:42:52;;;;;;;1.60;1.17;;;;;;;28.28;60.26;100297.34;10370649;28;20077;-60
2023/08/15 09:47:55;;;;;;;4.13;1.17;;;;;;;28.67;59.21;100305.41;10382680;28;20042;-59
2023/08/15 09:52:58;;;;;;;2.20;1.08;;;;;;;28.54;58.64;100299.78;10384283;28;20046;-60
2023/08/15 09:58:00;;;;;;;3.97;1.35;;;;;;;28.56;57.76;100309.44;10367887;28;20115;-59
2023/08/15 10:03:19;;;;;;;2.08;1.25;;;;;;;28.93;56.47;100306.94;10368560;28;20050;-60
2023/08/15 10:08:23;;;;;;;2.90;1.50;;;;;;;29.04;56.52;100313.97;10370962;28;20050;-59
2023/08/15 10:13:31;;;;;;;2.53;1.75;;;;;;;29.15;56.40;100315.50;10369320;28;20105;-60
2023/08/15 10:18:33;;;;;;;2.95;1.90;;;;;;;29.55;55.27;100310.38;10360921;28;20126;-60
2023/08/15 10:23:37;;;;;;;3.40;1.90;;;;;;;29.78;55.00;100316.94;10362961;28;20046;-59
2023/08/15 10:28:40;;;;;;;2.78;1.95;;;;;;;29.90;54.64;100316.44;10352774;28;20358;-59
2023/08/15 10:33:43;;;;;;;4.38;1.02;;;;;;;30.01;53.88;100322.59;10356349;28;20497;-60
2023/08/15 10:38:44;;;;;;;4.07;1.27;;;;;;;29.97;53.62;100329.88;10359403;28;20062;-60
2023/08/15 10:43:54;;;;;;;3.70;1.10;;;;;;;30.14;53.24;100316.25;10353049;28;20426;-60
2023/08/15 10:49:06;;;;;;;4.32;1.23;;;;;;;30.16;52.92;100324.25;10350095;28;20050;-66
2023/08/15 10:54:10;;;;;;;2.47;1.10;;;;;;;30.10;53.15;100320.75;10346281;28;20048;-69
2023/08/15 10:59:14;;;;;;;4.38;1.52;;;;;;;29.89;53.54;100342.50;10338761;28;20042;-69
2023/08/15 11:04:17;;;;;;;3.78;1.15;;;;;;;29.65;53.58;100353.72;10347032;28;20059;-67
2023/08/15 11:09:19;;;;;;;1.83;1.00;;;;;;;29.42;53.83;100366.56;10343442;28;20115;-69
2023/08/15 11:14:20;;;;;;;3.17;0.98;;;;;;;29.06;54.06;100384.53;10337507;28;20049;-68
2023/08/15 11:19:22;;;;;;;2.33;0.50;;;;;;;28.62;53.63;100399.53;10341274;28;20104;-69
2023/08/15 11:24:23;;;;;;;1.38;0.60;;;;;;;27.63;55.53;100422.03;10340084;28;20045;-60
2023/08/15 11:29:25;;;;;;;2.70;0.90;;;;;;;26.38;59.14;100425.66;10344084;28;20042;-62
2023/08/15 11:34:29;;;;;;;4.75;1.35;;;;;;;25.06;64.66;100419.81;10336512;28;20523;-64
2023/08/15 11:39:30;;;;;;;3.15;1.00;;;;;;;24.65;66.01;100402.34;10334772;28;20519;-62
2023/08/15 11:44:31;;;;;;;4.53;1.30;;;;;;;24.28;67.66;100389.50;10330472;28;20050;-69
2023/08/15 11:49:33;;;;;;;4.45;1.50;;;;;;;23.57;71.24;100401.59;10331026;28;20038;-70
2023/08/15 11:54:46;;;;;;;2.88;1.02;;;;;;;23.36;72.42;100384.09;10334708;28;20137;-70
2023/08/15 11:59:50;;;;;;;5.57;1.42;;;;;;;23.55;73.12;100388.13;10333814;28;20064;-73
2023/08/15 12:04:52;;;;;;;2.22;1.42;;;;;;;23.59;73.67;100393.09;10334137;28;20126;-68
2023/08/15 12:09:55;;;;;;;4.03;1.83;;;;;;;23.70;74.06;100376.47;10334590;28;20056;-69
2023/08/15 12:14:56;;;;;;;4.30;1.85;;;;;;;23.61;74.19;100363.47;10335557;28;20042;-68
2023/08/15 12:19:58;;;;;;;4.13;1.95;;;;;;;23.64;74.26;100377.50;10344191;28;20038;-68
2023/08/15 12:24:59;;;;;;;6.78;1.88;;;;;;;23.73;74.56;100377.84;10344516;28;20780;-66
2023/08/15 12:30:05;;;;;;;2.80;1.65;;;;;;;23.78;74.30;100379.84;10340069;28;20108;-67
2023/08/15 12:35:15;;;;;;;5.18;2.20;;;;;;;23.76;74.44;100402.03;10349783;28;20127;-65
2023/08/15 12:40:17;;;;;;;6.22;2.80;;;;;;;24.01;74.74;100400.59;10343467;28;20496;-65
2023/08/15 12:45:31;;;;;;;3.22;1.52;;;;;;;23.99;74.17;100400.03;10344397;28;20104;-66
2023/08/15 12:50:33;;;;;;;3.22;1.40;;;;;;;23.90;74.39;100396.94;10343676;28;20047;-66
2023/08/15 12:55:34;;;;;;;3.20;1.45;;;;;;;23.86;74.67;100393.91;10344115;28;20067;-65
2023/08/15 13:00:35;;;;;;;1.95;1.20;;;;;;;23.87;73.97;100389.22;10344931;28;20121;-62
2023/08/15 13:05:37;;;;;;;2.50;1.23;;;;;;;23.95;74.16;100386.84;10346308;28;20069;-61
2023/08/15 13:10:38;;;;;;;1.33;1.02;;;;;;;24.03;73.55;100381.94;10342391;28;20580;-61
2023/08/15 13:15:42;;;;;;;2.75;1.08;;;;;;;24.20;72.86;100385.34;10342688;28;20058;-60
2023/08/15 13:20:44;;;;;;;3.65;1.30;;;;;;;24.31;72.56;100398.03;10349800;28;20034;-60
2023/08/15 13:25:45;;;;;;;3.67;1.33;;;;;;;24.41;72.17;100396.41;10343360;28;20046;-62
2023/08/15 13:30:47;;;;;;;5.97;1.50;;;;;;;24.57;71.63;100419.38;10342834;28;20149;-61
2023/08/15 13:35:48;;;;;;;2.75;1.52;;;;;;;24.56;71.98;100421.28;10344577;28;20552;-61
2023/08/15 13:40:50;;;;;;;6.13;2.50;;;;;;;24.71;71.84;100435.09;10350824;28;20042;-60
2023/08/15 13:45:52;;;;;;;3.22;1.42;;;;;;;24.61;72.20;100425.97;10347432;28;20573;-60
2023/08/15 13:50:53;;;;;;;4.32;1.50;;;;;;;23.91;73.40;100421.41;10350305;28;20049;-69
2023/08/15 13:55:55;;;;;;;3.80;1.60;;;;;;;23.36;75.28;100423.38;10346461;28;20054;-64
2023/08/15 14:00:56;;;;;;;3.65;1.63;;;;;;;23.20;75.68;100417.97;10340188;28;20055;-64
2023/08/15 14:05:59;;;;;;;3.80;1.73;;;;;;;23.33;75.00;100417.56;10342040;28;20050;-60
2023/08/15 14:11:03;;;;;;;5.78;2.17;;;;;;;23.34;74.97;100384.38;10344244;28;20053;-59
2023/08/15 14:16:04;;;;;;;3.10;1.70;;;;;;;23.46;75.03;100386.13;10343736;28;20061;-62
2023/08/15 14:21:07;;;;;;;2.50;1.73;;;;;;;23.70;74.60;100367.41;10342823;28;20069;-62
2023/08/15 14:26:10;;;;;;;5.75;2.15;;;;;;;23.89;74.09;100367.81;10338944;28;20053;-65
2023/08/15 14:31:11;;;;;;;5.15;2.10;;;;;;;23.94;74.14;100367.88;10337328;28;20053;-61
2023/08/15 14:36:13;;;;;;;5.00;2.42;;;;;;;24.00;74.50;100364.06;10335387;28;20054;-61
2023/08/15 14:41:14;;;;;;;8.55;2.17;;;;;;;24.07;73.61;100353.69;10336474;28;20058;-64
2023/08/15 14:46:16;;;;;;;5.25;1.65;;;;;;;24.30;73.79;100360.66;10339272;28;20050;-61
2023/08/15 14:51:17;;;;;;;2.70;1.58;;;;;;;24.82;72.87;100367.22;10343538;28;20066;-63
2023/08/15 14:56:19;;;;;;;6.43;1.83;;;;;;;25.16;72.98;100375.00;10336175;28;20046;-64
2023/08/15 15:01:20;;;;;;;5.20;1.73;;;;;;;25.64;72.41;100381.09;10335076;28;20046;-68
2023/08/15 15:06:21;;;;;;;3.92;1.70;;;;;;;26.37;70.54;100368.06;10338387;28;20046;-64
2023/08/15 15:11:23;;;;;;;3.65;2.25;;;;;;;26.50;69.86;100364.69;10340918;28;20400;-64
2023/08/15 15:16:24;;;;;;;2.90;1.50;;;;;;;26.52;69.96;100382.63;10334969;28;20061;-63
2023/08/15 15:21:26;;;;;;;4.57;1.90;;;;;;;26.54;69.26;100374.06;10338341;28;20042;-63
2023/08/15 15:26:27;;;;;;;3.97;1.65;;;;;;;27.14;67.88;100370.47;10332805;28;20436;-66
2023/08/15 15:31:29;;;;;;;7.95;1.48;;;;;;;27.51;67.18;100367.19;10340035;28;20520;-65
2023/08/15 15:36:30;;;;;;;4.30;1.50;;;;;;;27.61;67.17;100374.56;10333670;28;20524;-66
2023/08/15 15:41:32;;;;;;;6.88;1.67;;;;;;;27.63;67.27;100377.84;10336508;28;20065;-69
2023/08/15 15:46:33;;;;;;;6.80;2.67;;;;;;;27.54;67.37;100388.69;10337741;28;20042;-64
2023/08/15 15:51:54;;;;;;;3.05;1.98;;;;;;;27.53;67.52;100394.47;10335455;28;20050;-69
2023/08/15 15:56:56;;;;;;;5.25;1.98;;;;;;;27.52;67.37;100388.16;10337805;28;20042;-67
2023/08/15 16:01:57;;;;;;;5.57;2.30;;;;;;;27.52;67.17;100390.91;10337643;28;20045;-66
2023/08/15 16:06:59;;;;;;;3.63;2.17;;;;;;;27.38;67.11;100400.97;10335953;28;20515;-67
2023/08/15 16:32:54;;;;;;;6.00;3.90;;;;;;;27.22;65.32;100401.03;10558885;27;20966;-69
2023/08/15 16:37:56;;;;;;;6.88;2.45;;;;;;;27.43;65.27;100398.16;10534980;28;20071;-71
2023/08/15 16:43:16;;;;;;;5.53;2.42;;;;;;;27.01;66.13;100413.31;10536125;28;20047;-69
2023/08/15 16:48:17;;;;;;;3.33;1.88;;;;;;;26.94;65.73;100404.53;10531926;28;20395;-71
2023/08/15 16:53:20;;;;;;;5.30;2.08;;;;;;;26.85;66.22;100396.81;10528734;28;20488;-68
2023/08/15 16:58:21;;;;;;;3.22;2.35;;;;;;;26.77;66.21;100396.59;10542989;28;20032;-70
2023/08/15 17:03:23;;;;;;;5.28;2.30;;;;;;;26.70;66.71;100400.50;10533109;28;20039;-69
2023/08/15 17:08:25;;;;;;;4.65;2.47;;;;;;;26.76;66.83;100405.97;10536278;28;20155;-69
2023/08/15 17:13:26;;;;;;;7.35;2.63;;;;;;;26.74;66.84;100411.78;10532381;28;20062;-66
2023/08/15 17:18:28;;;;;;;13.18;3.13;;;;;;;26.62;67.30;100416.78;10535829;28;20046;-67
2023/08/15 17:23:29;;;;;;;5.78;2.03;;;;;;;26.93;67.06;100419.41;10534618;28;20048;-68
2023/08/15 17:28:30;;;;;;;5.38;2.22;;;;;;;27.14;67.46;100431.19;10536761;28;20054;-71
2023/08/15 17:33:32;;;;;;;5.70;2.60;;;;;;;27.40;67.10;100429.94;10506562;28;20051;-70
2023/08/15 17:38:33;;;;;;;4.85;1.90;;;;;;;27.67;66.25;100437.75;10504505;28;20055;-68
2023/08/15 17:43:36;;;;;;;5.43;2.47;;;;;;;27.88;66.18;100441.19;10512160;28;20403;-67
2023/08/15 17:48:37;;;;;;;6.40;3.17;;;;;;;28.16;65.46;100446.19;10507431;28;20047;-70
2023/08/15 17:53:38;;;;;;;4.53;1.98;;;;;;;27.88;65.35;100446.72;10506107;28;20070;-67
2023/08/15 17:58:47;;;;;;;1.88;1.55;;;;;;;27.71;64.66;100451.81;10504760;28;20051;-69
2023/08/15 18:03:49;;;;;;;7.45;2.90;;;;;;;27.41;65.19;100463.88;10521096;28;20051;-68
2023/08/15 18:08:51;;;;;;;7.07;1.75;;;;;;;27.28;65.33;100473.63;10500334;28;20072;-69
2023/08/15 18:13:52;;;;;;;2.80;1.58;;;;;;;26.96;65.46;100480.38;10497730;28;20055;-67
2023/08/15 18:18:54;;;;;;;6.97;2.38;;;;;;;26.87;65.70;100493.91;10502287;28;20033;-68
2023/08/15 18:23:56;;;;;;;5.22;1.77;;;;;;;26.70;65.84;100505.31;10503047;28;20056;-66
2023/08/15 18:28:58;;;;;;;6.05;2.10;;;;;;;26.57;65.87;100511.34;10500500;28;20493;-71
2023/08/15 18:33:59;;;;;;;8.90;1.92;;;;;;;26.43;66.45;100513.06;10496142;28;20681;-69
2023/08/15 18:39:01;;;;;;;4.13;2.08;;;;;;;26.28;66.73;100519.38;10497761;28;20047;-68
2023/08/15 18:44:02;;;;;;;3.95;3.05;;;;;;;26.12;67.36;100524.91;10499540;28;20047;-65
2023/08/15 18:49:04;;;;;;;4.03;3.10;;;;;;;25.96;67.86;100530.69;10499427;28;20036;-70
2023/08/15 18:54:07;;;;;;;6.40;3.42;;;;;;;25.83;68.05;100540.28;10493745;28;20555;-68
2023/08/15 18:59:09;;;;;;;9.20;3.63;;;;;;;25.66;68.17;100546.06;10498725;28;20043;-70
2023/08/15 19:04:10;;;;;;;6.50;4.72;;;;;;;25.52;68.77;100546.56;10498985;28;20045;-67
2023/08/15 19:09:12;;;;;;;5.03;4.15;;;;;;;25.38;69.05;100537.16;10493650;28;20694;-68
2023/08/15 19:14:14;;;;;;;4.65;3.95;;;;;;;25.25;69.03;100540.41;10494077;28;20063;-67
2023/08/15 19:19:15;;;;;;;5.47;3.05;;;;;;;25.14;69.04;100543.09;10498344;28;20674;-64
2023/08/15 19:24:17;;;;;;;5.93;3.15;;;;;;;25.02;69.73;100539.75;10496084;28;20044;-68
2023/08/15 19:29:19;;;;;;;6.85;3.75;;;;;;;24.88;69.98;100541.31;10499988;28;20048;-59
2023/08/15 19:34:20;;;;;;;6.70;3.97;;;;;;;24.66;70.91;100550.53;10499194;28;20052;-59
2023/08/15 19:39:22;;;;;;;6.40;3.53;;;;;;;24.59;70.78;100547.19;10497795;28;20037;-58
2023/08/15 19:44:23;;;;;;;7.70;4.25;;;;;;;24.49;71.01;100541.59;10491842;28;20036;-58
2023/08/15 19:49:26;;;;;;;7.18;3.75;;;;;;;24.38;71.55;100542.59;10494777;28;20044;-59
2023/08/15 19:54:27;;;;;;;6.63;3.75;;;;;;;24.31;71.52;100538.16;10508217;28;20480;-58
2023/08/15 19:59:29;;;;;;;6.78;4.15;;;;;;;24.22;71.47;100539.72;10498322;28;20044;-57
2023/08/15 20:04:30;;;;;;;10.98;4.32;;;;;;;24.16;71.78;100535.28;10494186;28;20052;-58
2023/08/15 20:09:32;;;;;;;9.40;5.22;;;;;;;24.06;72.00;100544.28;10496217;28;20041;-57
2023/08/15 20:14:33;;;;;;;9.23;4.30;;;;;;;23.98;72.27;100546.69;10493794;28;20519;-57
2023/08/15 20:19:35;;;;;;;10.70;5.57;;;;;;;23.75;72.69;100545.84;10490274;28;20092;-58
2023/08/15 20:24:38;;;;;;;9.35;5.50;;;;;;;23.70;73.17;100543.91;10490784;28;20044;-57
2023/08/15 20:29:39;;;;;;;9.50;4.88;;;;;;;23.66;72.63;100544.69;10494294;28;20052;-59
2023/08/15 20:34:40;;;;;;;8.07;5.93;;;;;;;23.45;73.40;100543.63;10494882;28;20496;-59
2023/08/15 20:39:42;;;;;;;8.00;6.00;;;;;;;23.42;73.21;100539.50;10495763;28;20052;-60
2023/08/15 20:44:44;;;;;;;8.23;6.18;;;;;;;23.42;73.33;100535.88;10496681;28;20047;-58
2023/08/15 20:49:46;;;;;;;8.60;6.03;;;;;;;23.32;73.73;100539.34;10495336;28;20049;-58
2023/08/15 20:54:47;;;;;;;10.27;5.80;;;;;;;23.33;73.69;100541.00;10496477;28;21279;-59
2023/08/15 20:59:49;;;;;;;10.48;5.95;;;;;;;23.25;73.54;100549.69;10491910;28;20512;-59
2023/08/15 21:04:50;;;;;;;7.72;5.80;;;;;;;23.21;73.71;100562.28;10496931;28;20043;-58
2023/08/15 21:09:52;;;;;;;12.68;5.75;;;;;;;23.12;73.43;100564.59;10498584;28;20048;-59
2023/08/15 21:14:53;;;;;;;9.65;7.30;;;;;;;23.09;73.17;100571.44;10503754;28;20952;-58
2023/08/15 21:19:55;;;;;;;11.70;5.53;;;;;;;23.01;73.80;100574.59;10503925;28;20047;-59
2023/08/15 21:24:56;;;;;;;9.63;5.50;;;;;;;22.94;73.42;100573.94;10496942;28;20539;-60
2023/08/15 21:29:58;;;;;;;7.20;4.97;;;;;;;22.81;73.74;100566.91;10496229;28;20048;-59
2023/08/15 21:34:59;;;;;;;9.55;5.68;;;;;;;22.69;74.24;100582.59;10499314;28;20191;-59
2023/08/15 21:40:01;;;;;;;8.05;5.78;;;;;;;22.55;74.84;100593.06;10505687;28;20029;-60
2023/08/15 21:45:02;;;;;;;8.73;4.97;;;;;;;22.61;74.36;100594.84;10502534;28;20056;-60
2023/08/15 21:50:04;;;;;;;9.00;5.70;;;;;;;;;;10504615;28;20048;-59
2023/08/15 21:55:06;;;;;;;9.00;5.20;;;;;;;22.54;74.60;100602.41;10503650;28;20050;-59
2023/08/15 22:00:08;;;;;;;11.13;4.38;;;;;;;22.53;74.48;100600.72;10504785;28;20051;-60
2023/08/15 22:05:10;;;;;;;7.72;4.40;;;;;;;22.48;74.30;100589.69;10506251;28;20044;-58
2023/08/15 22:10:12;;;;;;;5.40;3.30;;;;;;;22.36;74.63;100596.06;10504567;27;20043;-59
2023/08/15 22:15:13;;;;;;;5.63;3.13;;;;;;;22.32;74.39;100600.41;10500604;28;20044;-58
2023/08/15 22:20:15;;;;;;;6.13;3.60;;;;;;;22.32;74.26;100594.09;10506779;28;20715;-58
2023/08/15 22:25:17;;;;;;;6.00;3.13;;;;;;;22.20;74.67;100601.53;10504069;28;20124;-59
2023/08/15 22:30:19;;;;;;;8.07;3.88;;;;;;;22.08;74.91;100598.84;10505780;28;20064;-58
2023/08/15 22:35:35;;;;;;;3.72;2.60;;;;;;;22.09;74.86;100589.53;10503735;28;20059;-59
2023/08/15 22:40:37;;;;;;;8.93;2.87;;;;;;;22.13;74.44;100593.44;10505465;28;20752;-59
2023/08/15 22:45:38;;;;;;;5.40;2.20;;;;;;;22.05;74.66;100586.47;10500927;28;20040;-58
2023/08/15 22:50:39;;;;;;;6.38;2.38;;;;;;;22.02;75.00;100586.97;10498959;28;20171;-59
2023/08/15 22:55:41;;;;;;;4.38;3.00;;;;;;;22.04;74.99;100581.22;10501867;28;20048;-59
2023/08/15 23:00:42;;;;;;;3.33;2.15;;;;;;;22.11;74.77;100587.38;10500230;28;20530;-59
2023/08/15 23:05:44;;;;;;;4.03;2.35;;;;;;;22.04;74.92;100584.81;10503203;28;20044;-59
2023/08/15 23:10:53;;;;;;;3.50;2.58;;;;;;;21.96;75.22;100591.53;10503369;28;20526;-59
2023/08/15 23:15:54;;;;;;;6.68;2.45;;;;;;;22.00;74.77;100589.13;10501258;28;20135;-59
2023/08/15 23:20:56;;;;;;;2.60;1.95;;;;;;;22.06;74.75;100590.03;10502163;28;20163;-59
2023/08/15 23:25:57;;;;;;;5.32;2.33;;;;;;;22.06;74.67;100584.53;10504167;28;20044;-60
2023/08/15 23:30:59;;;;;;;2.38;2.17;;;;;;;22.04;74.48;100583.97;10499540;28;20047;-59